This is the latest recevied weather packets stored in our database for station/object W5HKR. If no packets are shown the sender has not sent any weather packets the latest 10 day(s).
| Time | Temp. | Humidity | Pressure | Rain* | Wind** | Luminosity | Snow |
|---|---|---|---|---|---|---|---|
| 1777596754 | 18.33° C | 91% | 990.6 hPa | 0 mm | - | - | - |
| 1777596502 | 22.78° C | 76% | 981.5 hPa | 0 mm | - | - | - |
| 1777596202 | 22.78° C | 75% | 981.5 hPa | 0 mm | - | - | - |
| 1777595902 | 22.78° C | 75% | 981.7 hPa | 0 mm | - | - | - |
| 1777595673 | 18.33° C | 91% | 990.6 hPa | 0 mm | - | - | - |
| 1777595603 | 18.33° C | 91% | 990.6 hPa | 0 mm | - | - | - |
| 1777595301 | 23.33° C | 75% | 981.8 hPa | 0 mm | - | - | - |
| 1777595001 | 23.33° C | 74% | 981.4 hPa | 0 mm | - | - | - |
| 1777594700 | 18.33° C | 91% | 990.6 hPa | 0 mm | - | - | - |
| 1777594594 | 18.33° C | 91% | 990.6 hPa | 0 mm | - | - | - |
| 1777594402 | 18.33° C | 91% | 990.6 hPa | 0 mm | - | - | - |
| 1777594101 | 23.33° C | 74% | 981.9 hPa | 0 mm | - | - | - |
| 1777593502 | 23.33° C | 73% | 981.7 hPa | 0 mm | - | - | - |
| 1777593201 | 18.33° C | 91% | 990.6 hPa | 0 mm | - | - | - |
| 1777592901 | 18.33° C | 91% | 990.6 hPa | 0 mm | - | - | - |
| 1777592601 | 23.89° C | 72% | 981.1 hPa | 0 mm | - | - | - |
| 1777592434 | 23.89° C | 72% | 981.6 hPa | 0 mm | - | - | - |
| 1777592301 | 18.33° C | 91% | 990.6 hPa | 0 mm | - | - | - |
| 1777592002 | 18.33° C | 91% | 990.6 hPa | 0 mm | - | - | - |
| 1777591702 | 18.33° C | 91% | 990.6 hPa | 0 mm | - | - | - |
| 1777591402 | 24.44° C | 70% | 980.9 hPa | 0 mm | - | - | - |
| 1777591353 | 18.33° C | 91% | 990.6 hPa | 0 mm | - | - | - |
| 1777591101 | 18.33° C | 91% | 990.6 hPa | 0 mm | - | - | - |
| 1777590802 | 18.33° C | 91% | 990.6 hPa | 0 mm | - | - | - |
| 1777590503 | 18.33° C | 91% | 990.6 hPa | 0 mm | - | - | - |
* Rain latest hour (hover to see other rain measurements)
** Current wind speed in m/s (hover to see current wind gust speed)